Latest Weather Observations for Coles Point

IDS60801

Issued at 10:02 pm CDT Thursday 8 December 2016 (issued every 30 minutes, with the page automatically refreshed every 10 minutes)

About weather observations | Map of weather stations | Latest weather observations for SA | Other Formats
Station Details ID: 018191 Name: COLES POINT Lat: -34.37 Lon: 135.37 Height: 28.0 m
Data from the previous 72 hours. | See also: Recent months at Coles Point
Date/Time
CDT
Temp
°C
App
Temp
°C
Dew
Point
°C
Rel
Hum
%
Delta-T
°C
Wind Press
QNH
hPa
Press
MSL
hPa
Rain since
9am
mm
Dir  Spd
km/h
Gust
km/h
Spd
kts
Gust
kts
08/10:00pm 14.7 10.1 8.2 65 3.3 S 22 32 12 17 1019.2 1019.1 0.4
08/09:30pm 14.8 9.7 7.8 63 3.5 SSW 24 33 13 18 1018.9 1018.8 0.4
08/09:00pm 14.8 9.9 8.5 66 3.2 SSW 24 33 13 18 1018.5 1018.4 0.4
08/08:30pm 14.8 9.9 8.5 66 3.2 SSW 24 37 13 20 1018.2 1018.2 0.4
08/08:00pm 15.5 9.8 8.3 62 3.6 SW 28 37 15 20 1017.9 1017.9 0.4
08/07:30pm 15.7 10.2 9.1 65 3.4 SSW 28 39 15 21 1017.4 1017.4 0.4
08/07:01pm 14.8 9.3 9.2 69 2.9 SSW 28 54 15 29 1017.2 1017.2 0.4
08/07:00pm 15.4 10.4 9.5 68 3.1 SSW 26 52 14 28 1017.2 1017.2 0.4
08/06:30pm 16.8 10.9 9.0 60 4.0 SSW 30 43 16 23 1016.7 1016.7 0.4
08/06:00pm 16.1 9.4 8.1 59 4.0 SW 33 43 18 23 1016.2 1016.2 0.4
08/05:30pm 16.8 11.3 9.0 60 4.0 SW 28 37 15 20 1015.9 1015.9 0.4
08/05:00pm 18.2 11.6 7.6 50 5.4 SW 32 41 17 22 1015.6 1015.6 0.4
08/04:30pm 18.0 11.4 7.7 51 5.2 WSW 32 43 17 23 1015.3 1015.3 0.4
08/04:00pm 18.4 12.3 8.1 51 5.3 WSW 30 43 16 23 1015.1 1015.1 0.4
08/03:30pm 18.9 13.1 8.0 49 5.6 WSW 28 39 15 21 1014.9 1014.9 0.4
08/03:00pm 20.0 13.8 8.0 46 6.2 SW 30 37 16 20 1014.7 1014.7 0.4
08/02:30pm 19.9 14.1 7.9 46 6.2 WSW 28 39 15 21 1014.7 1014.7 0.4
08/02:00pm 18.7 12.2 8.1 50 5.4 SW 32 41 17 22 1014.7 1014.7 0.4
08/01:30pm 20.1 14.0 9.7 51 5.6 SW 32 39 17 21 1014.6 1014.6 0.4
08/01:00pm 18.9 12.9 8.6 51 5.4 WSW 30 43 16 23 1014.4 1014.4 0.4
08/12:30pm 17.0 11.1 10.4 65 3.5 WSW 32 44 17 24 1014.3 1014.3 0.4
08/12:00pm 14.7 9.5 10.3 75 2.3 WSW 28 44 15 24 1014.1 1014.1 0.2
08/11:30am 15.1 11.2 10.7 75 2.3 SW 22 33 12 18 1013.9 1013.9 0.2
08/11:09am 16.6 10.3 9.1 61 3.9 SW 32 54 17 29 1013.6 1013.6 0.0
08/11:00am 17.8 11.2 7.8 52 5.1 SW 32 43 17 23 1013.2 1013.2 0.0
08/10:30am 18.5 12.5 8.5 52 5.2 WSW 30 41 16 22 1012.8 1012.8 0.0
08/10:00am 17.2 10.6 8.6 57 4.4 SW 33 46 18 25 1012.3 1012.3 0.0
08/09:30am 17.6 12.1 9.2 58 4.4 SW 28 41 15 22 1011.9 1011.9 0.0
08/09:08am 16.3 10.1 9.5 64 3.5 SW 32 50 17 27 1011.8 1011.8 0.0
08/09:00am 16.3 10.2 9.7 65 3.5 SW 32 46 17 25 1011.6 1011.5 1.2
08/08:30am 15.8 10.3 9.0 64 3.5 WSW 28 43 15 23 1011.1 1011.0 1.2
08/08:00am 16.3 11.1 8.8 61 3.8 WSW 26 37 14 20 1010.6 1010.5 1.2
08/07:30am 15.8 10.1 8.3 61 3.8 WSW 28 39 15 21 1010.1 1010.0 1.2
08/07:00am 15.2 8.6 8.7 65 3.3 WSW 33 50 18 27 1009.8 1009.7 1.2
08/06:30am 15.4 9.2 9.3 67 3.1 SW 32 43 17 23 1009.2 1009.1 1.2
08/06:00am 15.3 9.8 9.0 66 3.2 SW 28 37 15 20 1008.7 1008.6 1.2
08/05:30am 15.4 9.1 8.9 65 3.3 WSW 32 44 17 24 1008.3 1008.2 1.2
08/05:00am 15.1 7.6 8.1 63 3.5 WSW 37 52 20 28 1007.9 1007.8 1.2
08/04:30am 15.1 8.6 8.8 66 3.2 WSW 33 52 18 28 1007.3 1007.2 1.2
08/04:03am 15.4 9.4 10.0 70 2.8 WSW 32 52 17 28 1006.9 1006.8 1.2
08/04:00am 15.4 9.2 10.0 70 2.8 WSW 33 44 18 24 1006.9 1006.8 1.2
08/03:30am 15.3 8.8 8.8 65 3.3 WSW 33 48 18 26 1006.7 1006.6 1.2
08/03:00am 15.2 8.7 8.9 66 3.2 WSW 33 46 18 25 1006.4 1006.3 1.2
08/02:32am 15.3 7.5 9.7 69 2.9 WSW 41 61 22 33 1006.3 1006.2 1.2
08/02:30am 15.3 7.0 9.4 68 3.1 WSW 43 61 23 33 1006.2 1006.1 1.2
08/02:15am 15.2 7.5 10.2 72 2.6 SW 41 61 22 33 1005.8 1005.7 1.2
08/02:00am 15.1 7.1 10.5 74 2.4 SW 43 57 23 31 1005.6 1005.5 1.2
08/01:33am 15.3 8.9 10.7 74 2.4 SW 35 56 19 30 1005.2 1005.1 1.2
08/01:30am 15.3 8.7 11.3 77 2.2 SW 37 56 20 30 1005.1 1005.0 1.2
08/01:00am 15.7 9.3 12.1 79 2.0 SW 37 54 20 29 1004.9 1004.8 1.2
08/12:30am 16.6 10.6 13.3 81 1.9 WSW 37 54 20 29 1004.6 1004.5 1.2
08/12:00am 16.9 13.0 14.4 85 1.4 WSW 28 46 15 25 1004.6 1004.5 1.2
 
Date/Time
CDT
Temp
°C
App
Temp
°C
Dew
Point
°C
Rel
Hum
%
Delta-T
°C
Wind Press
QNH
hPa
Press
MSL
hPa
Rain since
9am
mm
Dir  Spd
km/h
Gust
km/h
Spd
kts
Gust
kts
07/11:30pm 17.3 14.7 15.8 91 0.9 WSW 24 35 13 19 1005.2 1005.1 0.4
07/11:00pm 18.3 14.1 15.7 85 1.5 WSW 32 43 17 23 1004.4 1004.3 0.0
07/10:30pm 20.4 17.2 15.2 72 3.1 WSW 26 41 14 22 1003.3 1003.2 0.0
07/10:00pm 21.1 20.6 15.9 72 3.1 NW 13 17 7 9 1002.5 1002.4 0.0
07/09:30pm 22.3 21.4 14.9 63 4.4 W 13 19 7 10 1000.8 1000.7 0.0
07/09:24pm 22.3 21.5 15.2 64 4.2 W 13 19 7 10 1001.9 1001.8 0.0
07/09:00pm 23.0 23.4 14.8 60 4.9 NNW 6 7 3 4 999.8 999.7 0.0
07/08:30pm 23.2 23.2 14.2 57 5.3 NNW 7 11 4 6 1000.5 1000.4 0.0
07/08:00pm 24.1 23.8 14.5 55 5.7 NNW 9 11 5 6 1000.1 1000.0 0.0
07/07:30pm 24.0 23.9 13.8 53 6.0 NNW 7 11 4 6 1000.7 1000.6 0.0
07/07:00pm 24.8 25.1 13.4 49 6.7 NW 4 6 2 3 1000.8 1000.7 0.0
07/06:30pm 25.5 24.6 12.7 45 7.4 WNW 9 13 5 7 1001.4 1001.3 0.0
07/06:00pm 27.0 26.0 13.4 43 8.1 NW 11 15 6 8 1001.9 1001.8 0.0
07/05:30pm 26.9 26.0 12.5 40 8.4 WSW 9 15 5 8 1002.4 1002.3 0.0
07/05:00pm 27.2 26.2 12.4 40 8.6 WSW 9 13 5 7 1003.2 1003.1 0.0
07/04:30pm 26.9 25.6 11.4 38 8.9 WSW 9 13 5 7 1003.8 1003.7 0.0
07/04:00pm 27.6 25.8 12.0 38 9.0 WNW 13 19 7 10 1004.6 1004.5 0.0
07/03:30pm 27.3 25.1 10.9 36 9.3 NW 13 19 7 10 1005.4 1005.3 0.0
07/03:00pm 27.6 24.6 10.8 35 9.5 WNW 17 24 9 13 1006.2 1006.1 0.0
07/02:30pm 26.5 24.9 11.4 39 8.6 WSW 11 17 6 9 1006.9 1006.8 0.0
07/02:00pm 27.9 25.9 11.5 36 9.4 NW 13 19 7 10 1007.2 1007.1 0.0
07/01:30pm 27.7 24.9 11.3 36 9.4 NW 17 24 9 13 1007.9 1007.8 0.0
07/01:00pm 28.2 25.1 10.4 33 10.0 NW 17 24 9 13 1008.4 1008.3 0.0
07/12:30pm 27.8 24.1 9.6 32 10.1 NW 19 24 10 13 1008.9 1008.8 0.0
07/12:00pm 28.2 25.3 9.5 31 10.4 NNE 15 26 8 14 1009.4 1009.3 0.0
07/11:30am 27.5 24.1 9.3 32 10.1 NE 17 22 9 12 1009.9 1009.8 0.0
07/11:00am 26.1 22.8 9.5 35 9.1 NE 17 20 9 11 1010.4 1010.3 0.0
07/10:30am 25.5 21.8 9.3 36 8.9 NE 19 24 10 13 1010.7 1010.6 0.0
07/10:00am 23.8 20.3 10.8 44 7.2 NNE 20 26 11 14 1011.2 1011.1 0.0
07/09:30am 22.1 18.3 11.2 50 6.1 NE 22 28 12 15 1011.7 1011.6 0.0
07/09:00am 19.8 15.1 10.8 56 4.9 NE 26 32 14 17 1012.0 1012.0 0.0
07/08:30am 18.1 13.3 10.2 60 4.2 NNE 26 32 14 17 1012.3 1012.3 0.0
07/08:00am 17.1 13.5 9.8 62 3.8 NE 19 22 10 12 1012.5 1012.5 0.0
07/07:30am 16.2 12.5 9.6 65 3.4 NNE 19 24 10 13 1012.8 1012.8 0.0
07/07:00am 15.4 13.7 10.0 70 2.8 NE 9 13 5 7 1012.9 1012.9 0.0
07/06:30am 12.7 10.2 8.4 75 2.1 ENE 11 11 6 6 1013.0 1013.0 0.0
07/06:00am 12.3 10.8 8.4 77 1.9 E 6 7 3 4 1013.1 1013.1 0.0
07/05:30am 12.5 10.6 9.0 79 1.8 ENE 9 9 5 5 1013.0 1013.0 0.0
07/05:00am 11.6 10.1 8.3 80 1.6 E 6 6 3 3 1013.0 1013.0 0.0
07/04:30am 11.3 9.7 8.0 80 1.6 E 6 7 3 4 1013.0 1013.0 0.0
07/04:00am 11.0 9.3 7.7 80 1.6 E 6 6 3 3 1013.1 1013.1 0.0
07/03:30am 11.1 9.1 7.2 77 1.9 E 7 9 4 5 1013.0 1013.0 0.0
07/03:00am 11.6 9.3 7.5 76 2.0 E 9 11 5 6 1013.1 1013.1 0.0
07/02:30am 12.0 9.4 7.9 76 2.0 ENE 11 11 6 6 1013.5 1013.5 0.0
07/02:00am 12.1 9.9 7.8 75 2.1 ESE 9 9 5 5 1013.9 1013.9 0.0
07/01:30am 11.7 9.0 7.4 75 2.1 SE 11 13 6 7 1014.4 1014.4 0.0
07/01:00am 11.8 11.0 6.7 71 2.4 CALM 0 2 0 1 1015.0 1015.0 0.0
07/12:30am 12.6 10.8 7.3 70 2.6 E 6 7 3 4 1015.4 1015.4 0.0
07/12:00am 12.9 9.9 7.6 70 2.6 ESE 13 15 7 8 1015.5 1015.5 0.0
 
Date/Time
CDT
Temp
°C
App
Temp
°C
Dew
Point
°C
Rel
Hum
%
Delta-T
°C
Wind Press
QNH
hPa
Press
MSL
hPa
Rain since
9am
mm
Dir  Spd
km/h
Gust
km/h
Spd
kts
Gust
kts
06/11:30pm 12.6 9.5 7.1 69 2.7 SE 13 15 7 8 1015.9 1015.9 0.0
06/11:00pm 12.5 10.5 7.2 70 2.6 SSE 7 9 4 5 1016.3 1016.3 0.0
06/10:30pm 12.4 10.5 6.5 67 2.8 SSE 6 7 3 4 1016.2 1016.2 0.0
06/10:00pm 13.5 11.6 7.7 68 2.9 SSE 7 9 4 5 1016.4 1016.4 0.0
06/09:30pm 14.2 12.5 7.7 65 3.2 SSE 6 7 3 4 1016.3 1016.3 0.0
06/09:00pm 15.6 13.1 8.1 61 3.8 SSE 11 11 6 6 1015.9 1015.9 0.0
06/08:30pm 16.4 14.6 8.1 58 4.2 S 7 11 4 6 1016.0 1016.0 0.0
06/08:00pm 17.4 13.8 8.5 56 4.6 S 17 22 9 12 1016.0 1016.0 0.0
06/07:30pm 18.0 13.9 8.6 54 4.9 S 20 30 11 16 1015.8 1015.8 0.0
06/07:00pm 18.7 13.9 8.7 52 5.2 SSW 24 32 13 17 1015.4 1015.4 0.0
06/06:30pm 19.2 13.9 9.7 54 5.0 SSW 28 35 15 19 1015.1 1015.1 0.0
06/06:00pm 20.8 16.8 9.1 47 6.2 SSW 20 26 11 14 1014.8 1014.8 0.0
06/05:30pm 21.0 17.1 9.3 47 6.2 SW 20 26 11 14 1014.9 1014.9 0.0
06/05:00pm 21.3 16.4 6.8 39 7.4 SSW 22 26 12 14 1015.0 1015.0 0.0
06/04:30pm 20.7 15.5 7.3 42 6.9 SSW 24 30 13 16 1015.5 1015.5 0.0
06/04:00pm 21.5 16.4 7.7 41 7.2 SSW 24 30 13 16 1015.6 1015.6 0.0
06/03:30pm 21.0 16.9 8.0 43 6.8 SW 19 22 10 12 1015.5 1015.5 0.0
06/03:00pm 21.5 17.3 7.3 40 7.3 SW 19 24 10 13 1015.8 1015.8 0.0
06/02:30pm 21.2 17.1 8.5 44 6.7 SW 20 24 11 13 1016.0 1016.0 0.0
06/02:00pm 21.0 16.4 8.0 43 6.8 SSW 22 28 12 15 1016.5 1016.5 0.0
06/01:30pm 21.0 15.8 8.9 46 6.4 SSW 26 32 14 17 1016.6 1016.6 0.0
06/01:00pm 20.1 15.5 8.1 46 6.2 SSW 22 28 12 15 1016.6 1016.6 0.0
06/12:30pm 20.4 15.4 8.1 45 6.4 SW 24 30 13 16 1016.7 1016.7 0.0
06/12:00pm 20.6 16.1 8.6 46 6.3 SW 22 30 12 16 1016.8 1016.8 0.0
06/11:30am 19.4 15.4 9.0 51 5.5 SW 20 26 11 14 1016.7 1016.7 0.0
06/11:00am 19.8 16.0 9.1 50 5.6 SW 19 24 10 13 1016.4 1016.4 0.0
06/10:30am 19.5 17.1 8.8 50 5.6 S 11 19 6 10 1016.4 1016.4 0.0
06/10:00am 18.2 16.5 8.2 52 5.1 SE 7 13 4 7 1016.4 1016.4 0.0
06/09:30am 17.3 15.2 8.2 55 4.6 SSE 9 15 5 8 1016.8 1016.8 0.0
06/09:00am 15.8 14.8 9.0 64 3.5 ENE 4 9 2 5 1016.8 1016.8 0.0
06/08:30am 15.5 14.3 9.4 67 3.1 NNE 6 7 3 4 1016.8 1016.8 0.0
06/08:00am 15.0 14.1 9.1 68 3.0 ENE 4 6 2 3 1016.8 1016.8 0.0
06/07:30am 14.9 13.7 9.5 70 2.8 E 6 9 3 5 1016.6 1016.6 0.0
06/07:00am 14.1 13.0 9.9 76 2.2 E 6 9 3 5 1016.3 1016.3 0.0
06/06:30am 12.7 12.2 9.2 79 1.8 SSE 2 4 1 2 1015.8 1015.8 0.0
06/06:00am 12.4 11.5 9.2 81 1.6 SSE 4 6 2 3 1015.5 1015.5 0.0
06/05:30am 11.6 9.8 8.1 79 1.7 SSE 7 9 4 5 1015.4 1015.4 0.0
06/05:00am 12.5 10.5 8.8 78 1.9 S 9 13 5 7 1015.0 1015.0 0.0
06/04:30am 13.3 12.6 8.6 73 2.4 WSW 2 4 1 2 1015.4 1015.4 0.0
06/04:00am 13.8 13.1 8.4 70 2.7 NNE 2 9 1 5 1014.6 1014.6 0.0
06/03:30am 13.6 11.9 8.4 71 2.6 NE 7 7 4 4 1013.6 1013.6 0.0
06/03:00am 13.6 12.6 8.7 72 2.5 ENE 4 6 2 3 1013.4 1013.4 0.0
06/02:30am 13.3 11.7 8.2 71 2.5 ENE 6 7 3 4 1013.4 1013.4 0.0
06/02:00am 13.2 10.7 8.1 71 2.5 ENE 11 15 6 8 1013.8 1013.8 0.0
06/01:30am 13.3 11.1 8.0 70 2.6 E 9 11 5 6 1014.9 1014.9 0.0
06/01:00am 13.7 12.2 8.3 70 2.7 SSW 6 7 3 4 1016.4 1016.4 0.0
06/12:30am 13.9 12.2 8.3 69 2.8 SSW 7 11 4 6 1017.2 1017.2 0.0
06/12:00am 14.0 11.8 8.0 67 3.0 SSE 9 11 5 6 1015.8 1015.8 0.0
 
Date/Time
CDT
Temp
°C
App
Temp
°C
Dew
Point
°C
Rel
Hum
%
Delta-T
°C
Wind Press
QNH
hPa
Press
MSL
hPa
Rain since
9am
mm
Dir  Spd
km/h
Gust
km/h
Spd
kts
Gust
kts
05/11:30pm 14.0 11.0 7.8 66 3.1 SSE 13 17 7 9 1015.3 1015.3 0.0
05/11:00pm 14.2 11.5 7.5 64 3.3 SSE 11 15 6 8 1015.3 1015.3 0.0
05/10:30pm 14.8 12.1 7.4 61 3.7 SE 11 15 6 8 1015.3 1015.3 0.0

Other Formats:

Comma delimited format used in spreadsheet applications
http://www.bom.gov.au/fwo/IDS60801/IDS60801.94658.axf

JavaScript Object Notation format (JSON) in row-major order
http://www.bom.gov.au/fwo/IDS60801/IDS60801.94658.json